sensor_id;sensor_type;location;lat;lon;timestamp;P1;durP1;ratioP1;P2;durP2;ratioP2
3541;SDS011;1785;47.388;8.538;2023-07-13T00:00:23;4.13;;;3.73;;
3541;SDS011;1785;47.388;8.538;2023-07-13T00:02:50;4.60;;;3.80;;
3541;SDS011;1785;47.388;8.538;2023-07-13T00:05:18;10.83;;;4.20;;
3541;SDS011;1785;47.388;8.538;2023-07-13T00:07:44;5.93;;;4.57;;
3541;SDS011;1785;47.388;8.538;2023-07-13T00:10:11;5.10;;;3.90;;
3541;SDS011;1785;47.388;8.538;2023-07-13T00:12:38;4.60;;;4.20;;
3541;SDS011;1785;47.388;8.538;2023-07-13T00:15:06;3.97;;;3.67;;
3541;SDS011;1785;47.388;8.538;2023-07-13T00:17:37;5.20;;;3.60;;
3541;SDS011;1785;47.388;8.538;2023-07-13T00:20:04;6.25;;;3.72;;
3541;SDS011;1785;47.388;8.538;2023-07-13T00:22:32;4.03;;;3.63;;
3541;SDS011;1785;47.388;8.538;2023-07-13T00:24:58;3.77;;;3.10;;
3541;SDS011;1785;47.388;8.538;2023-07-13T00:27:24;4.53;;;3.07;;
3541;SDS011;1785;47.388;8.538;2023-07-13T00:29:51;3.37;;;2.70;;
3541;SDS011;1785;47.388;8.538;2023-07-13T00:32:17;4.40;;;2.90;;
3541;SDS011;1785;47.388;8.538;2023-07-13T00:34:44;4.10;;;3.53;;
3541;SDS011;1785;47.388;8.538;2023-07-13T00:37:10;4.47;;;3.57;;
3541;SDS011;1785;47.388;8.538;2023-07-13T00:39:36;4.00;;;3.33;;
3541;SDS011;1785;47.388;8.538;2023-07-13T00:42:04;4.10;;;3.17;;
3541;SDS011;1785;47.388;8.538;2023-07-13T00:44:30;3.63;;;3.33;;
3541;SDS011;1785;47.388;8.538;2023-07-13T00:46:57;3.70;;;3.40;;
3541;SDS011;1785;47.388;8.538;2023-07-13T00:49:24;6.73;;;3.57;;
3541;SDS011;1785;47.388;8.538;2023-07-13T00:51:58;4.73;;;3.93;;
3541;SDS011;1785;47.388;8.538;2023-07-13T00:54:29;6.60;;;3.10;;
3541;SDS011;1785;47.388;8.538;2023-07-13T00:56:58;4.00;;;3.60;;
3541;SDS011;1785;47.388;8.538;2023-07-13T00:59:27;6.27;;;2.90;;
3541;SDS011;1785;47.388;8.538;2023-07-13T01:01:53;7.73;;;3.10;;
3541;SDS011;1785;47.388;8.538;2023-07-13T01:04:20;4.97;;;3.47;;
3541;SDS011;1785;47.388;8.538;2023-07-13T01:06:48;5.83;;;3.93;;
3541;SDS011;1785;47.388;8.538;2023-07-13T01:09:15;3.80;;;3.30;;
3541;SDS011;1785;47.388;8.538;2023-07-13T01:11:41;4.87;;;4.37;;
3541;SDS011;1785;47.388;8.538;2023-07-13T01:14:07;3.63;;;3.20;;
3541;SDS011;1785;47.388;8.538;2023-07-13T01:16:34;4.10;;;3.80;;
3541;SDS011;1785;47.388;8.538;2023-07-13T01:19:03;4.47;;;4.00;;
3541;SDS011;1785;47.388;8.538;2023-07-13T01:21:39;4.63;;;3.30;;
3541;SDS011;1785;47.388;8.538;2023-07-13T01:24:07;4.57;;;3.85;;
3541;SDS011;1785;47.388;8.538;2023-07-13T01:26:34;3.30;;;2.83;;
3541;SDS011;1785;47.388;8.538;2023-07-13T01:29:00;4.50;;;3.03;;
3541;SDS011;1785;47.388;8.538;2023-07-13T01:31:26;3.40;;;3.10;;
3541;SDS011;1785;47.388;8.538;2023-07-13T01:33:52;7.90;;;4.27;;
3541;SDS011;1785;47.388;8.538;2023-07-13T01:36:19;4.33;;;3.53;;
3541;SDS011;1785;47.388;8.538;2023-07-13T01:38:46;6.77;;;3.37;;
3541;SDS011;1785;47.388;8.538;2023-07-13T01:41:12;5.90;;;3.60;;
3541;SDS011;1785;47.388;8.538;2023-07-13T01:43:38;4.83;;;3.47;;
3541;SDS011;1785;47.388;8.538;2023-07-13T01:46:04;4.60;;;3.10;;
3541;SDS011;1785;47.388;8.538;2023-07-13T01:48:30;4.47;;;3.60;;
3541;SDS011;1785;47.388;8.538;2023-07-13T01:50:56;6.77;;;3.87;;
3541;SDS011;1785;47.388;8.538;2023-07-13T01:53:22;3.77;;;3.03;;
3541;SDS011;1785;47.388;8.538;2023-07-13T01:55:49;3.33;;;3.00;;
3541;SDS011;1785;47.388;8.538;2023-07-13T01:58:15;5.20;;;3.30;;
3541;SDS011;1785;47.388;8.538;2023-07-13T02:00:41;4.90;;;3.80;;
3541;SDS011;1785;47.388;8.538;2023-07-13T02:03:07;7.73;;;3.90;;
3541;SDS011;1785;47.388;8.538;2023-07-13T02:05:33;4.50;;;3.20;;
3541;SDS011;1785;47.388;8.538;2023-07-13T02:07:59;5.60;;;3.73;;
3541;SDS011;1785;47.388;8.538;2023-07-13T02:10:25;3.70;;;3.27;;
3541;SDS011;1785;47.388;8.538;2023-07-13T02:12:52;3.63;;;3.30;;
3541;SDS011;1785;47.388;8.538;2023-07-13T02:15:18;4.60;;;3.00;;
3541;SDS011;1785;47.388;8.538;2023-07-13T02:17:44;4.57;;;3.72;;
3541;SDS011;1785;47.388;8.538;2023-07-13T02:20:10;5.27;;;3.33;;
3541;SDS011;1785;47.388;8.538;2023-07-13T02:22:36;4.63;;;3.20;;
3541;SDS011;1785;47.388;8.538;2023-07-13T02:25:02;5.90;;;3.20;;
3541;SDS011;1785;47.388;8.538;2023-07-13T02:27:28;6.83;;;3.47;;
3541;SDS011;1785;47.388;8.538;2023-07-13T02:29:55;3.60;;;3.30;;
3541;SDS011;1785;47.388;8.538;2023-07-13T02:32:21;3.30;;;3.00;;
3541;SDS011;1785;47.388;8.538;2023-07-13T02:34:50;3.80;;;3.50;;
3541;SDS011;1785;47.388;8.538;2023-07-13T02:37:16;4.33;;;3.57;;
3541;SDS011;1785;47.388;8.538;2023-07-13T02:39:41;5.10;;;3.80;;
3541;SDS011;1785;47.388;8.538;2023-07-13T02:42:07;4.07;;;3.43;;
3541;SDS011;1785;47.388;8.538;2023-07-13T02:44:33;7.10;;;3.30;;
3541;SDS011;1785;47.388;8.538;2023-07-13T02:47:00;4.07;;;3.20;;
3541;SDS011;1785;47.388;8.538;2023-07-13T02:49:26;4.00;;;3.10;;
3541;SDS011;1785;47.388;8.538;2023-07-13T02:51:52;3.60;;;3.20;;
3541;SDS011;1785;47.388;8.538;2023-07-13T02:54:18;6.90;;;3.30;;
3541;SDS011;1785;47.388;8.538;2023-07-13T02:56:44;4.80;;;3.40;;
3541;SDS011;1785;47.388;8.538;2023-07-13T02:59:10;6.90;;;3.50;;
3541;SDS011;1785;47.388;8.538;2023-07-13T03:01:37;3.37;;;3.00;;
3541;SDS011;1785;47.388;8.538;2023-07-13T03:04:04;6.27;;;3.70;;
3541;SDS011;1785;47.388;8.538;2023-07-13T03:06:30;5.87;;;3.70;;
3541;SDS011;1785;47.388;8.538;2023-07-13T03:08:56;6.87;;;3.50;;
3541;SDS011;1785;47.388;8.538;2023-07-13T03:11:22;5.77;;;3.30;;
3541;SDS011;1785;47.388;8.538;2023-07-13T03:13:48;6.00;;;2.90;;
3541;SDS011;1785;47.388;8.538;2023-07-13T03:16:15;4.80;;;2.80;;
3541;SDS011;1785;47.388;8.538;2023-07-13T03:18:41;3.37;;;3.07;;
3541;SDS011;1785;47.388;8.538;2023-07-13T03:21:08;4.77;;;3.37;;
3541;SDS011;1785;47.388;8.538;2023-07-13T03:23:34;7.30;;;3.10;;
3541;SDS011;1785;47.388;8.538;2023-07-13T03:26:01;3.57;;;3.27;;
3541;SDS011;1785;47.388;8.538;2023-07-13T03:28:28;3.97;;;3.30;;
3541;SDS011;1785;47.388;8.538;2023-07-13T03:30:58;3.93;;;3.50;;
3541;SDS011;1785;47.388;8.538;2023-07-13T03:33:25;3.73;;;3.40;;
3541;SDS011;1785;47.388;8.538;2023-07-13T03:35:51;3.57;;;3.27;;
3541;SDS011;1785;47.388;8.538;2023-07-13T03:38:18;4.63;;;4.20;;
3541;SDS011;1785;47.388;8.538;2023-07-13T03:40:44;3.20;;;3.00;;
3541;SDS011;1785;47.388;8.538;2023-07-13T03:43:10;3.83;;;2.80;;
3541;SDS011;1785;47.388;8.538;2023-07-13T03:45:37;3.07;;;2.87;;
3541;SDS011;1785;47.388;8.538;2023-07-13T03:48:03;3.23;;;2.93;;
3541;SDS011;1785;47.388;8.538;2023-07-13T03:50:30;3.43;;;3.13;;
3541;SDS011;1785;47.388;8.538;2023-07-13T03:52:56;4.70;;;3.40;;
3541;SDS011;1785;47.388;8.538;2023-07-13T03:55:23;3.30;;;3.00;;
3541;SDS011;1785;47.388;8.538;2023-07-13T03:57:54;7.90;;;3.33;;
3541;SDS011;1785;47.388;8.538;2023-07-13T04:00:24;4.00;;;3.60;;
3541;SDS011;1785;47.388;8.538;2023-07-13T04:02:50;3.45;;;3.15;;
3541;SDS011;1785;47.388;8.538;2023-07-13T04:05:16;5.07;;;3.23;;
3541;SDS011;1785;47.388;8.538;2023-07-13T04:07:43;6.23;;;5.60;;
3541;SDS011;1785;47.388;8.538;2023-07-13T04:10:09;3.77;;;3.10;;
3541;SDS011;1785;47.388;8.538;2023-07-13T04:12:36;3.87;;;3.47;;
3541;SDS011;1785;47.388;8.538;2023-07-13T04:15:02;3.40;;;3.10;;
3541;SDS011;1785;47.388;8.538;2023-07-13T04:17:28;5.60;;;3.00;;
3541;SDS011;1785;47.388;8.538;2023-07-13T04:19:54;6.27;;;3.23;;
3541;SDS011;1785;47.388;8.538;2023-07-13T04:22:20;3.10;;;2.80;;
3541;SDS011;1785;47.388;8.538;2023-07-13T04:24:46;4.20;;;3.10;;
3541;SDS011;1785;47.388;8.538;2023-07-13T04:27:12;3.50;;;3.13;;
3541;SDS011;1785;47.388;8.538;2023-07-13T04:29:39;9.03;;;4.17;;
3541;SDS011;1785;47.388;8.538;2023-07-13T04:32:05;3.60;;;3.30;;
3541;SDS011;1785;47.388;8.538;2023-07-13T04:34:31;6.60;;;3.87;;
3541;SDS011;1785;47.388;8.538;2023-07-13T04:36:58;5.40;;;4.23;;
3541;SDS011;1785;47.388;8.538;2023-07-13T04:39:24;7.60;;;4.10;;
3541;SDS011;1785;47.388;8.538;2023-07-13T04:41:50;4.97;;;4.10;;
3541;SDS011;1785;47.388;8.538;2023-07-13T04:44:16;4.20;;;3.90;;
3541;SDS011;1785;47.388;8.538;2023-07-13T04:46:42;4.90;;;4.20;;
3541;SDS011;1785;47.388;8.538;2023-07-13T04:49:09;3.80;;;3.27;;
3541;SDS011;1785;47.388;8.538;2023-07-13T04:51:35;4.20;;;3.13;;
3541;SDS011;1785;47.388;8.538;2023-07-13T04:54:01;6.00;;;3.70;;
3541;SDS011;1785;47.388;8.538;2023-07-13T04:56:27;5.60;;;3.33;;
3541;SDS011;1785;47.388;8.538;2023-07-13T04:58:53;5.97;;;3.17;;
3541;SDS011;1785;47.388;8.538;2023-07-13T05:01:19;3.60;;;3.30;;
3541;SDS011;1785;47.388;8.538;2023-07-13T05:03:45;3.80;;;3.07;;
3541;SDS011;1785;47.388;8.538;2023-07-13T05:06:11;3.50;;;3.20;;
3541;SDS011;1785;47.388;8.538;2023-07-13T05:08:39;4.83;;;3.63;;
3541;SDS011;1785;47.388;8.538;2023-07-13T05:11:05;5.80;;;3.30;;
3541;SDS011;1785;47.388;8.538;2023-07-13T05:13:32;4.90;;;4.00;;
3541;SDS011;1785;47.388;8.538;2023-07-13T05:15:58;6.23;;;3.93;;
3541;SDS011;1785;47.388;8.538;2023-07-13T05:18:26;5.53;;;3.87;;
3541;SDS011;1785;47.388;8.538;2023-07-13T05:20:59;3.70;;;3.37;;
3541;SDS011;1785;47.388;8.538;2023-07-13T05:23:27;3.93;;;3.53;;
3541;SDS011;1785;47.388;8.538;2023-07-13T05:25:53;4.40;;;4.00;;
3541;SDS011;1785;47.388;8.538;2023-07-13T05:28:19;7.83;;;4.20;;
3541;SDS011;1785;47.388;8.538;2023-07-13T05:30:46;4.97;;;3.97;;
3541;SDS011;1785;47.388;8.538;2023-07-13T05:33:13;3.73;;;3.33;;
3541;SDS011;1785;47.388;8.538;2023-07-13T05:35:39;5.43;;;4.00;;
3541;SDS011;1785;47.388;8.538;2023-07-13T05:38:05;5.07;;;4.00;;
3541;SDS011;1785;47.388;8.538;2023-07-13T05:40:31;5.80;;;4.30;;
3541;SDS011;1785;47.388;8.538;2023-07-13T05:42:57;5.20;;;4.07;;
3541;SDS011;1785;47.388;8.538;2023-07-13T05:45:23;5.63;;;4.10;;
3541;SDS011;1785;47.388;8.538;2023-07-13T05:47:50;4.50;;;4.10;;
3541;SDS011;1785;47.388;8.538;2023-07-13T05:50:16;4.13;;;3.60;;
3541;SDS011;1785;47.388;8.538;2023-07-13T05:52:42;4.90;;;3.77;;
3541;SDS011;1785;47.388;8.538;2023-07-13T05:55:09;7.50;;;4.20;;
3541;SDS011;1785;47.388;8.538;2023-07-13T05:57:35;3.90;;;3.60;;
3541;SDS011;1785;47.388;8.538;2023-07-13T06:00:01;7.50;;;3.30;;
3541;SDS011;1785;47.388;8.538;2023-07-13T06:02:28;3.90;;;3.50;;
3541;SDS011;1785;47.388;8.538;2023-07-13T06:04:54;5.80;;;3.37;;
3541;SDS011;1785;47.388;8.538;2023-07-13T06:07:20;11.30;;;3.67;;
3541;SDS011;1785;47.388;8.538;2023-07-13T06:09:46;4.33;;;3.93;;
3541;SDS011;1785;47.388;8.538;2023-07-13T06:12:12;4.07;;;3.50;;
3541;SDS011;1785;47.388;8.538;2023-07-13T06:14:38;4.30;;;3.70;;
3541;SDS011;1785;47.388;8.538;2023-07-13T06:17:05;4.53;;;3.60;;
3541;SDS011;1785;47.388;8.538;2023-07-13T06:19:31;3.83;;;3.03;;
3541;SDS011;1785;47.388;8.538;2023-07-13T06:21:57;3.57;;;3.27;;
3541;SDS011;1785;47.388;8.538;2023-07-13T06:24:23;4.13;;;3.73;;
3541;SDS011;1785;47.388;8.538;2023-07-13T06:26:49;4.10;;;3.70;;
3541;SDS011;1785;47.388;8.538;2023-07-13T06:29:16;4.73;;;3.30;;
3541;SDS011;1785;47.388;8.538;2023-07-13T06:31:42;3.77;;;3.13;;
3541;SDS011;1785;47.388;8.538;2023-07-13T06:34:08;4.63;;;3.13;;
3541;SDS011;1785;47.388;8.538;2023-07-13T06:36:34;3.87;;;3.00;;
3541;SDS011;1785;47.388;8.538;2023-07-13T06:39:01;2.90;;;2.50;;
3541;SDS011;1785;47.388;8.538;2023-07-13T06:41:27;3.37;;;3.00;;
3541;SDS011;1785;47.388;8.538;2023-07-13T06:43:53;3.30;;;2.70;;
3541;SDS011;1785;47.388;8.538;2023-07-13T06:46:20;2.93;;;2.70;;
3541;SDS011;1785;47.388;8.538;2023-07-13T06:48:47;2.23;;;2.10;;
3541;SDS011;1785;47.388;8.538;2023-07-13T06:51:13;2.93;;;2.63;;
3541;SDS011;1785;47.388;8.538;2023-07-13T06:53:39;2.70;;;2.50;;
3541;SDS011;1785;47.388;8.538;2023-07-13T06:56:05;2.83;;;2.10;;
3541;SDS011;1785;47.388;8.538;2023-07-13T06:58:31;2.87;;;2.23;;
3541;SDS011;1785;47.388;8.538;2023-07-13T07:00:59;3.63;;;2.50;;
3541;SDS011;1785;47.388;8.538;2023-07-13T07:03:26;2.90;;;2.20;;
3541;SDS011;1785;47.388;8.538;2023-07-13T07:05:52;2.80;;;2.57;;
3541;SDS011;1785;47.388;8.538;2023-07-13T07:08:18;2.60;;;2.40;;
3541;SDS011;1785;47.388;8.538;2023-07-13T07:10:44;3.40;;;2.67;;
3541;SDS011;1785;47.388;8.538;2023-07-13T07:13:11;6.40;;;2.70;;
3541;SDS011;1785;47.388;8.538;2023-07-13T07:15:37;3.07;;;2.80;;
3541;SDS011;1785;47.388;8.538;2023-07-13T07:18:03;3.23;;;2.67;;
3541;SDS011;1785;47.388;8.538;2023-07-13T07:20:30;3.70;;;2.57;;
3541;SDS011;1785;47.388;8.538;2023-07-13T07:22:57;2.40;;;2.03;;
3541;SDS011;1785;47.388;8.538;2023-07-13T07:25:23;3.67;;;2.57;;
3541;SDS011;1785;47.388;8.538;2023-07-13T07:27:49;2.93;;;2.30;;
3541;SDS011;1785;47.388;8.538;2023-07-13T07:30:15;4.30;;;2.83;;
3541;SDS011;1785;47.388;8.538;2023-07-13T07:32:41;3.03;;;2.60;;
3541;SDS011;1785;47.388;8.538;2023-07-13T07:35:08;2.35;;;2.17;;
3541;SDS011;1785;47.388;8.538;2023-07-13T07:37:34;2.17;;;1.97;;
3541;SDS011;1785;47.388;8.538;2023-07-13T07:40:00;2.43;;;1.90;;
3541;SDS011;1785;47.388;8.538;2023-07-13T07:42:27;5.00;;;2.80;;
3541;SDS011;1785;47.388;8.538;2023-07-13T07:44:53;3.60;;;2.20;;
3541;SDS011;1785;47.388;8.538;2023-07-13T07:47:19;2.03;;;1.90;;
3541;SDS011;1785;47.388;8.538;2023-07-13T07:49:45;3.13;;;2.23;;
3541;SDS011;1785;47.388;8.538;2023-07-13T07:52:11;3.27;;;1.97;;
3541;SDS011;1785;47.388;8.538;2023-07-13T07:54:38;2.40;;;2.20;;
3541;SDS011;1785;47.388;8.538;2023-07-13T07:57:04;2.83;;;2.63;;
3541;SDS011;1785;47.388;8.538;2023-07-13T07:59:30;2.50;;;1.90;;
3541;SDS011;1785;47.388;8.538;2023-07-13T08:01:56;2.80;;;2.03;;
3541;SDS011;1785;47.388;8.538;2023-07-13T08:04:22;2.00;;;1.80;;
3541;SDS011;1785;47.388;8.538;2023-07-13T08:06:48;5.80;;;2.40;;
3541;SDS011;1785;47.388;8.538;2023-07-13T08:09:15;2.37;;;1.90;;
3541;SDS011;1785;47.388;8.538;2023-07-13T08:11:41;2.00;;;1.90;;
3541;SDS011;1785;47.388;8.538;2023-07-13T08:14:07;1.90;;;1.80;;
3541;SDS011;1785;47.388;8.538;2023-07-13T08:16:34;2.92;;;2.20;;
3541;SDS011;1785;47.388;8.538;2023-07-13T08:19:00;2.60;;;2.40;;
3541;SDS011;1785;47.388;8.538;2023-07-13T08:21:26;2.33;;;1.40;;
3541;SDS011;1785;47.388;8.538;2023-07-13T08:23:53;2.30;;;1.63;;
3541;SDS011;1785;47.388;8.538;2023-07-13T08:26:19;1.87;;;1.70;;
3541;SDS011;1785;47.388;8.538;2023-07-13T08:28:45;3.03;;;2.10;;
3541;SDS011;1785;47.388;8.538;2023-07-13T08:31:12;3.30;;;1.93;;
3541;SDS011;1785;47.388;8.538;2023-07-13T08:33:38;2.67;;;2.30;;
3541;SDS011;1785;47.388;8.538;2023-07-13T08:36:06;2.90;;;1.77;;
3541;SDS011;1785;47.388;8.538;2023-07-13T08:38:32;4.20;;;2.10;;
3541;SDS011;1785;47.388;8.538;2023-07-13T08:40:58;4.10;;;1.47;;
3541;SDS011;1785;47.388;8.538;2023-07-13T08:43:28;2.37;;;2.17;;
3541;SDS011;1785;47.388;8.538;2023-07-13T08:45:58;3.20;;;1.90;;
3541;SDS011;1785;47.388;8.538;2023-07-13T08:48:33;2.43;;;2.20;;
3541;SDS011;1785;47.388;8.538;2023-07-13T08:51:04;3.00;;;2.17;;
3541;SDS011;1785;47.388;8.538;2023-07-13T08:53:43;2.53;;;2.33;;
3541;SDS011;1785;47.388;8.538;2023-07-13T08:56:16;4.10;;;2.40;;
3541;SDS011;1785;47.388;8.538;2023-07-13T08:58:44;2.57;;;1.80;;
3541;SDS011;1785;47.388;8.538;2023-07-13T09:01:15;4.17;;;2.50;;
3541;SDS011;1785;47.388;8.538;2023-07-13T09:03:46;4.27;;;2.67;;
3541;SDS011;1785;47.388;8.538;2023-07-13T09:06:28;5.97;;;2.60;;
3541;SDS011;1785;47.388;8.538;2023-07-13T09:09:00;2.87;;;2.67;;
3541;SDS011;1785;47.388;8.538;2023-07-13T09:11:36;3.60;;;2.57;;
3541;SDS011;1785;47.388;8.538;2023-07-13T09:14:15;2.47;;;2.27;;
3541;SDS011;1785;47.388;8.538;2023-07-13T09:16:58;4.03;;;2.40;;
3541;SDS011;1785;47.388;8.538;2023-07-13T09:19:26;4.83;;;2.70;;
3541;SDS011;1785;47.388;8.538;2023-07-13T09:21:58;3.60;;;2.40;;
3541;SDS011;1785;47.388;8.538;2023-07-13T09:24:29;2.70;;;2.50;;
3541;SDS011;1785;47.388;8.538;2023-07-13T09:27:01;4.43;;;2.53;;
3541;SDS011;1785;47.388;8.538;2023-07-13T09:29:36;3.80;;;2.77;;
3541;SDS011;1785;47.388;8.538;2023-07-13T09:32:06;2.60;;;2.40;;
3541;SDS011;1785;47.388;8.538;2023-07-13T09:34:35;2.93;;;2.73;;
3541;SDS011;1785;47.388;8.538;2023-07-13T09:37:02;2.70;;;2.50;;
3541;SDS011;1785;47.388;8.538;2023-07-13T09:39:30;4.53;;;3.23;;
3541;SDS011;1785;47.388;8.538;2023-07-13T09:42:01;2.83;;;2.57;;
3541;SDS011;1785;47.388;8.538;2023-07-13T09:44:33;4.53;;;2.47;;
3541;SDS011;1785;47.388;8.538;2023-07-13T09:47:00;10.30;;;5.67;;
3541;SDS011;1785;47.388;8.538;2023-07-13T09:49:28;12.20;;;11.23;;
3541;SDS011;1785;47.388;8.538;2023-07-13T09:51:59;2.53;;;2.33;;
3541;SDS011;1785;47.388;8.538;2023-07-13T09:54:27;2.67;;;2.27;;
3541;SDS011;1785;47.388;8.538;2023-07-13T09:56:53;4.47;;;2.60;;
3541;SDS011;1785;47.388;8.538;2023-07-13T09:59:20;3.70;;;2.30;;
3541;SDS011;1785;47.388;8.538;2023-07-13T10:01:48;7.10;;;3.00;;
3541;SDS011;1785;47.388;8.538;2023-07-13T10:04:16;2.70;;;2.50;;
3541;SDS011;1785;47.388;8.538;2023-07-13T10:06:45;2.40;;;2.20;;
3541;SDS011;1785;47.388;8.538;2023-07-13T10:09:14;2.70;;;2.50;;
3541;SDS011;1785;47.388;8.538;2023-07-13T10:11:41;3.03;;;2.80;;
3541;SDS011;1785;47.388;8.538;2023-07-13T10:14:11;4.00;;;3.00;;
3541;SDS011;1785;47.388;8.538;2023-07-13T10:16:40;2.53;;;2.33;;
3541;SDS011;1785;47.388;8.538;2023-07-13T10:19:10;2.93;;;2.23;;
3541;SDS011;1785;47.388;8.538;2023-07-13T10:21:41;3.10;;;2.80;;
3541;SDS011;1785;47.388;8.538;2023-07-13T10:24:15;3.20;;;2.73;;
3541;SDS011;1785;47.388;8.538;2023-07-13T10:26:46;3.03;;;2.60;;
3541;SDS011;1785;47.388;8.538;2023-07-13T10:29:16;3.00;;;2.80;;
3541;SDS011;1785;47.388;8.538;2023-07-13T10:31:44;4.10;;;2.90;;
3541;SDS011;1785;47.388;8.538;2023-07-13T10:34:11;4.57;;;2.93;;
3541;SDS011;1785;47.388;8.538;2023-07-13T10:36:39;4.10;;;2.33;;
3541;SDS011;1785;47.388;8.538;2023-07-13T10:39:09;2.70;;;2.50;;
3541;SDS011;1785;47.388;8.538;2023-07-13T10:41:42;3.10;;;2.80;;
3541;SDS011;1785;47.388;8.538;2023-07-13T10:44:13;3.33;;;2.63;;
3541;SDS011;1785;47.388;8.538;2023-07-13T10:46:45;4.37;;;3.20;;
3541;SDS011;1785;47.388;8.538;2023-07-13T10:49:11;3.07;;;2.50;;
3541;SDS011;1785;47.388;8.538;2023-07-13T10:51:38;4.83;;;3.20;;
3541;SDS011;1785;47.388;8.538;2023-07-13T10:54:20;2.77;;;2.53;;
3541;SDS011;1785;47.388;8.538;2023-07-13T10:56:48;2.40;;;2.20;;
3541;SDS011;1785;47.388;8.538;2023-07-13T10:59:17;2.07;;;1.77;;
3541;SDS011;1785;47.388;8.538;2023-07-13T11:01:52;2.30;;;2.10;;
3541;SDS011;1785;47.388;8.538;2023-07-13T11:04:21;3.00;;;1.90;;
3541;SDS011;1785;47.388;8.538;2023-07-13T11:06:50;1.90;;;1.77;;
3541;SDS011;1785;47.388;8.538;2023-07-13T11:09:28;2.80;;;2.13;;
3541;SDS011;1785;47.388;8.538;2023-07-13T11:12:02;3.27;;;2.00;;
3541;SDS011;1785;47.388;8.538;2023-07-13T11:14:34;3.00;;;2.13;;
3541;SDS011;1785;47.388;8.538;2023-07-13T11:20:04;2.23;;;1.57;;
3541;SDS011;1785;47.388;8.538;2023-07-13T11:22:45;2.00;;;1.80;;
3541;SDS011;1785;47.388;8.538;2023-07-13T11:25:26;1.77;;;1.67;;
3541;SDS011;1785;47.388;8.538;2023-07-13T11:28:04;3.10;;;1.80;;
3541;SDS011;1785;47.388;8.538;2023-07-13T11:30:38;3.57;;;1.67;;
3541;SDS011;1785;47.388;8.538;2023-07-13T11:33:10;2.00;;;1.80;;
3541;SDS011;1785;47.388;8.538;2023-07-13T11:35:49;2.83;;;2.30;;
3541;SDS011;1785;47.388;8.538;2023-07-13T11:38:19;2.70;;;2.47;;
3541;SDS011;1785;47.388;8.538;2023-07-13T11:40:48;2.43;;;1.90;;
3541;SDS011;1785;47.388;8.538;2023-07-13T11:43:18;2.47;;;2.00;;
3541;SDS011;1785;47.388;8.538;2023-07-13T11:45:44;4.70;;;2.00;;
3541;SDS011;1785;47.388;8.538;2023-07-13T11:48:18;2.30;;;1.67;;
3541;SDS011;1785;47.388;8.538;2023-07-13T11:50:49;5.30;;;2.03;;
3541;SDS011;1785;47.388;8.538;2023-07-13T11:53:17;3.37;;;1.80;;
3541;SDS011;1785;47.388;8.538;2023-07-13T11:55:43;2.07;;;1.70;;
3541;SDS011;1785;47.388;8.538;2023-07-13T11:58:09;3.57;;;2.00;;
3541;SDS011;1785;47.388;8.538;2023-07-13T12:00:36;2.50;;;2.30;;
3541;SDS011;1785;47.388;8.538;2023-07-13T12:03:03;4.23;;;3.27;;
3541;SDS011;1785;47.388;8.538;2023-07-13T12:05:30;2.70;;;2.03;;
3541;SDS011;1785;47.388;8.538;2023-07-13T12:07:59;4.13;;;2.20;;
3541;SDS011;1785;47.388;8.538;2023-07-13T12:10:36;3.93;;;2.47;;
3541;SDS011;1785;47.388;8.538;2023-07-13T12:13:04;3.37;;;1.83;;
3541;SDS011;1785;47.388;8.538;2023-07-13T12:15:35;2.03;;;1.90;;
3541;SDS011;1785;47.388;8.538;2023-07-13T12:18:09;3.30;;;1.87;;
3541;SDS011;1785;47.388;8.538;2023-07-13T12:20:38;2.47;;;2.27;;
3541;SDS011;1785;47.388;8.538;2023-07-13T12:23:04;1.87;;;1.40;;
3541;SDS011;1785;47.388;8.538;2023-07-13T12:25:31;2.37;;;2.17;;
3541;SDS011;1785;47.388;8.538;2023-07-13T12:27:57;4.13;;;1.90;;
3541;SDS011;1785;47.388;8.538;2023-07-13T12:30:25;3.23;;;1.87;;
3541;SDS011;1785;47.388;8.538;2023-07-13T12:32:59;4.35;;;1.90;;
3541;SDS011;1785;47.388;8.538;2023-07-13T12:35:28;2.60;;;2.40;;
3541;SDS011;1785;47.388;8.538;2023-07-13T12:37:56;2.20;;;2.03;;
3541;SDS011;1785;47.388;8.538;2023-07-13T12:40:25;2.23;;;2.03;;
3541;SDS011;1785;47.388;8.538;2023-07-13T12:42:54;3.63;;;1.70;;
3541;SDS011;1785;47.388;8.538;2023-07-13T12:45:20;2.37;;;2.00;;
3541;SDS011;1785;47.388;8.538;2023-07-13T12:47:49;1.93;;;1.73;;
3541;SDS011;1785;47.388;8.538;2023-07-13T12:50:20;5.07;;;2.57;;
3541;SDS011;1785;47.388;8.538;2023-07-13T12:52:50;4.80;;;2.10;;
3541;SDS011;1785;47.388;8.538;2023-07-13T12:55:18;3.40;;;2.10;;
3541;SDS011;1785;47.388;8.538;2023-07-13T12:57:48;6.50;;;2.10;;
3541;SDS011;1785;47.388;8.538;2023-07-13T13:00:23;3.97;;;2.60;;
3541;SDS011;1785;47.388;8.538;2023-07-13T13:02:52;3.33;;;2.73;;
3541;SDS011;1785;47.388;8.538;2023-07-13T13:05:20;3.23;;;2.33;;
3541;SDS011;1785;47.388;8.538;2023-07-13T13:07:48;5.33;;;2.00;;
3541;SDS011;1785;47.388;8.538;2023-07-13T13:10:14;2.80;;;1.73;;
3541;SDS011;1785;47.388;8.538;2023-07-13T13:12:41;4.73;;;4.27;;
3541;SDS011;1785;47.388;8.538;2023-07-13T13:15:07;1.77;;;1.57;;
3541;SDS011;1785;47.388;8.538;2023-07-13T13:17:34;3.37;;;2.17;;
3541;SDS011;1785;47.388;8.538;2023-07-13T13:20:01;3.40;;;2.10;;
3541;SDS011;1785;47.388;8.538;2023-07-13T13:22:27;5.53;;;2.43;;
3541;SDS011;1785;47.388;8.538;2023-07-13T13:24:54;2.63;;;2.37;;
3541;SDS011;1785;47.388;8.538;2023-07-13T13:27:20;2.17;;;1.97;;
3541;SDS011;1785;47.388;8.538;2023-07-13T13:29:48;5.53;;;3.00;;
3541;SDS011;1785;47.388;8.538;2023-07-13T13:32:16;2.13;;;1.93;;
3541;SDS011;1785;47.388;8.538;2023-07-13T13:34:43;3.10;;;2.10;;
3541;SDS011;1785;47.388;8.538;2023-07-13T13:37:15;3.10;;;2.50;;
3541;SDS011;1785;47.388;8.538;2023-07-13T13:39:45;3.03;;;2.70;;
3541;SDS011;1785;47.388;8.538;2023-07-13T13:42:11;2.10;;;1.87;;
3541;SDS011;1785;47.388;8.538;2023-07-13T13:44:38;4.00;;;1.80;;
3541;SDS011;1785;47.388;8.538;2023-07-13T13:47:07;2.90;;;2.13;;
3541;SDS011;1785;47.388;8.538;2023-07-13T13:49:45;2.60;;;1.90;;
3541;SDS011;1785;47.388;8.538;2023-07-13T13:52:12;2.03;;;1.90;;
3541;SDS011;1785;47.388;8.538;2023-07-13T13:54:38;2.73;;;2.00;;
3541;SDS011;1785;47.388;8.538;2023-07-13T13:57:05;2.70;;;1.97;;
3541;SDS011;1785;47.388;8.538;2023-07-13T13:59:32;2.57;;;2.07;;
3541;SDS011;1785;47.388;8.538;2023-07-13T14:02:07;3.03;;;1.63;;
3541;SDS011;1785;47.388;8.538;2023-07-13T14:04:47;4.27;;;2.37;;
3541;SDS011;1785;47.388;8.538;2023-07-13T14:07:14;1.90;;;1.77;;
3541;SDS011;1785;47.388;8.538;2023-07-13T14:09:41;5.50;;;1.90;;
3541;SDS011;1785;47.388;8.538;2023-07-13T14:12:09;3.67;;;2.00;;
3541;SDS011;1785;47.388;8.538;2023-07-13T14:14:37;3.87;;;2.37;;
3541;SDS011;1785;47.388;8.538;2023-07-13T14:17:03;8.40;;;2.40;;
3541;SDS011;1785;47.388;8.538;2023-07-13T14:19:30;2.40;;;2.20;;
3541;SDS011;1785;47.388;8.538;2023-07-13T14:21:56;2.70;;;2.30;;
3541;SDS011;1785;47.388;8.538;2023-07-13T14:24:22;3.45;;;2.70;;
3541;SDS011;1785;47.388;8.538;2023-07-13T14:26:48;6.73;;;2.13;;
3541;SDS011;1785;47.388;8.538;2023-07-13T14:29:16;1.80;;;1.70;;
3541;SDS011;1785;47.388;8.538;2023-07-13T14:31:43;2.40;;;2.20;;
3541;SDS011;1785;47.388;8.538;2023-07-13T14:34:10;5.17;;;2.47;;
3541;SDS011;1785;47.388;8.538;2023-07-13T14:36:38;3.60;;;1.87;;
3541;SDS011;1785;47.388;8.538;2023-07-13T14:39:10;3.47;;;1.90;;
3541;SDS011;1785;47.388;8.538;2023-07-13T14:41:39;2.30;;;2.07;;
3541;SDS011;1785;47.388;8.538;2023-07-13T14:44:08;6.90;;;2.70;;
3541;SDS011;1785;47.388;8.538;2023-07-13T14:46:40;6.93;;;3.10;;
3541;SDS011;1785;47.388;8.538;2023-07-13T14:49:10;4.50;;;2.70;;
3541;SDS011;1785;47.388;8.538;2023-07-13T14:51:44;2.60;;;2.10;;
3541;SDS011;1785;47.388;8.538;2023-07-13T14:54:10;8.10;;;4.90;;
3541;SDS011;1785;47.388;8.538;2023-07-13T14:56:36;3.77;;;2.30;;
3541;SDS011;1785;47.388;8.538;2023-07-13T14:59:03;4.10;;;2.23;;
3541;SDS011;1785;47.388;8.538;2023-07-13T15:01:30;2.47;;;2.13;;
3541;SDS011;1785;47.388;8.538;2023-07-13T15:03:57;2.03;;;1.70;;
3541;SDS011;1785;47.388;8.538;2023-07-13T15:06:24;3.10;;;1.90;;
3541;SDS011;1785;47.388;8.538;2023-07-13T15:08:50;2.07;;;1.70;;
3541;SDS011;1785;47.388;8.538;2023-07-13T15:11:16;3.27;;;1.80;;
3541;SDS011;1785;47.388;8.538;2023-07-13T15:13:43;4.23;;;2.13;;
3541;SDS011;1785;47.388;8.538;2023-07-13T15:16:16;4.00;;;1.83;;
3541;SDS011;1785;47.388;8.538;2023-07-13T15:18:46;2.67;;;2.20;;
3541;SDS011;1785;47.388;8.538;2023-07-13T15:21:22;4.20;;;1.90;;